Time;durP1;ratioP1;P1;durP2;ratioP2;P2;SDS_P1;SDS_P2;PMS_P1;PMS_P2;Temp;Humidity;BMP_temperature;BMP_pressure;BME280_temperature;BME280_humidity;BME280_pressure;Samples;Min_cycle;Max_cycle;Signal;HPM_P1;HPM_P2
2021/01/09 00:01:20;;;;;;;7.47;5.10;;;;;;;;;;5043881;28;20036;-50
2021/01/09 00:03:45;;;;;;;7.65;5.32;;;;;;;;;;5044052;28;20025;-48
2021/01/09 00:06:11;;;;;;;7.00;5.03;;;;;;;;;;5043027;28;20022;-49
2021/01/09 00:08:38;;;;;;;7.43;5.53;;;;;;;;;;5045215;28;20032;-48
2021/01/09 00:11:04;;;;;;;7.05;5.30;;;;;;;;;;5041004;28;20025;-48
2021/01/09 00:13:30;;;;;;;6.95;5.07;;;;;;;;;;5043380;28;20040;-48
2021/01/09 00:15:56;;;;;;;7.95;5.22;;;;;;;;;;5042497;28;20037;-48
2021/01/09 00:18:22;;;;;;;7.43;5.30;;;;;;;;;;5043873;28;20045;-48
2021/01/09 00:20:48;;;;;;;7.03;5.10;;;;;;;;;;5043280;28;20460;-48
2021/01/09 00:23:13;;;;;;;7.28;5.05;;;;;;;;;;5042937;28;20038;-49
2021/01/09 00:25:39;;;;;;;7.30;5.20;;;;;;;;;;5044507;28;20021;-48
2021/01/09 00:28:06;;;;;;;7.40;5.28;;;;;;;;;;5042169;28;20388;-48
2021/01/09 00:30:32;;;;;;;6.93;5.18;;;;;;;;;;5044410;28;20040;-47
2021/01/09 00:32:58;;;;;;;7.47;5.47;;;;;;;;;;5042043;28;20022;-48
2021/01/09 00:35:24;;;;;;;8.55;6.10;;;;;;;;;;5045014;28;20029;-47
2021/01/09 00:37:50;;;;;;;7.90;5.78;;;;;;;;;;5043055;28;20103;-47
2021/01/09 00:40:16;;;;;;;7.90;5.50;;;;;;;;;;5042557;28;20025;-48
2021/01/09 00:42:42;;;;;;;7.38;5.60;;;;;;;;;;5044305;28;20021;-47
2021/01/09 00:45:08;;;;;;;8.38;5.50;;;;;;;;;;5041993;28;20025;-48
2021/01/09 00:47:34;;;;;;;7.90;5.57;;;;;;;;;;5044063;28;20033;-47
2021/01/09 00:50:00;;;;;;;7.90;5.32;;;;;;;;;;5040674;28;20026;-47
2021/01/09 00:52:26;;;;;;;7.90;5.75;;;;;;;;;;5043740;28;20100;-48
2021/01/09 00:54:52;;;;;;;8.18;6.05;;;;;;;;;;5042680;28;20032;-48
2021/01/09 00:57:18;;;;;;;8.00;5.70;;;;;;;;;;5042505;28;20041;-48
2021/01/09 00:59:44;;;;;;;9.20;6.28;;;;;;;;;;5043455;28;20391;-48
2021/01/09 01:02:10;;;;;;;9.27;6.63;;;;;;;;;;5040239;28;20038;-47
2021/01/09 01:04:36;;;;;;;9.32;6.43;;;;;;;;;;5044080;28;20124;-48
2021/01/09 01:07:02;;;;;;;10.85;6.65;;;;;;;;;;5040852;28;20025;-47
2021/01/09 01:09:28;;;;;;;9.75;6.53;;;;;;;;;;5041412;28;20092;-47
2021/01/09 01:11:54;;;;;;;9.20;6.70;;;;;;;;;;5041970;28;20371;-47
2021/01/09 01:14:20;;;;;;;8.88;6.60;;;;;;;;;;5041778;28;20044;-48
2021/01/09 01:16:49;;;;;;;9.68;6.95;;;;;;;;;;5041576;28;20087;-47
2021/01/09 01:19:15;;;;;;;10.80;7.28;;;;;;;;;;5041723;28;20021;-48
2021/01/09 01:21:41;;;;;;;9.88;6.88;;;;;;;;;;5057234;28;20033;-48
2021/01/09 01:24:07;;;;;;;10.30;7.00;;;;;;;;;;5041207;28;20025;-48
2021/01/09 01:26:34;;;;;;;9.70;6.85;;;;;;;;;;5043356;28;20119;-47
2021/01/09 01:29:00;;;;;;;9.50;6.97;;;;;;;;;;5039140;28;20025;-49
2021/01/09 01:31:27;;;;;;;9.10;6.47;;;;;;;;;;5042987;28;20099;-48
2021/01/09 01:33:53;;;;;;;9.55;6.63;;;;;;;;;;5041625;28;20104;-47
2021/01/09 01:36:19;;;;;;;8.93;6.70;;;;;;;;;;5040442;28;20108;-47
2021/01/09 01:38:45;;;;;;;9.80;6.93;;;;;;;;;;5042651;28;20025;-47
2021/01/09 01:41:11;;;;;;;9.27;6.70;;;;;;;;;;5040083;28;20040;-48
2021/01/09 01:43:37;;;;;;;9.48;6.85;;;;;;;;;;5043043;28;20060;-48
2021/01/09 01:46:03;;;;;;;9.10;6.65;;;;;;;;;;5040144;28;20029;-48
2021/01/09 01:48:30;;;;;;;9.65;6.43;;;;;;;;;;5042093;28;20029;-47
2021/01/09 01:50:56;;;;;;;9.23;6.70;;;;;;;;;;5040884;28;20025;-48
2021/01/09 01:53:22;;;;;;;9.82;7.10;;;;;;;;;;5040762;28;20033;-49
2021/01/09 01:55:48;;;;;;;10.95;7.60;;;;;;;;;;5041563;28;20060;-48
2021/01/09 01:58:14;;;;;;;9.73;6.95;;;;;;;;;;5041028;28;20069;-48
2021/01/09 02:00:46;;;;;;;10.07;7.20;;;;;;;;;;5041949;28;20021;-47
2021/01/09 02:03:12;;;;;;;9.82;7.20;;;;;;;;;;5038768;28;20021;-48
2021/01/09 02:05:40;;;;;;;9.55;6.80;;;;;;;;;;5040035;28;20017;-47
2021/01/09 02:08:07;;;;;;;9.82;7.25;;;;;;;;;;5039032;28;20033;-48
2021/01/09 02:10:33;;;;;;;10.88;6.82;;;;;;;;;;5041300;28;20032;-47
2021/01/09 02:13:03;;;;;;;10.38;7.03;;;;;;;;;;5038771;28;20029;-48
2021/01/09 02:15:29;;;;;;;10.80;7.28;;;;;;;;;;5040283;28;20036;-47
2021/01/09 02:17:55;;;;;;;10.10;6.93;;;;;;;;;;5039422;28;20025;-47
2021/01/09 02:20:21;;;;;;;9.75;7.05;;;;;;;;;;5040139;28;20427;-48
2021/01/09 02:22:47;;;;;;;10.23;7.18;;;;;;;;;;5040180;28;20041;-47
2021/01/09 02:25:13;;;;;;;10.38;7.25;;;;;;;;;;5039347;28;20037;-48
2021/01/09 02:27:39;;;;;;;9.02;6.82;;;;;;;;;;5043739;28;20024;-47
2021/01/09 02:30:25;;;;;;;10.07;6.88;;;;;;;;;;5040154;28;20045;-48
2021/01/09 02:32:52;;;;;;;11.30;7.10;;;;;;;;;;5040561;28;20033;-48
2021/01/09 02:35:18;;;;;;;11.30;7.82;;;;;;;;;;5040679;28;20591;-48
2021/01/09 02:37:44;;;;;;;9.93;6.90;;;;;;;;;;5041715;28;20104;-48
2021/01/09 02:40:12;;;;;;;9.60;6.50;;;;;;;;;;5039237;28;20020;-47
2021/01/09 02:42:38;;;;;;;10.07;7.10;;;;;;;;;;5038927;28;20025;-48
2021/01/09 02:45:04;;;;;;;9.75;6.72;;;;;;;;;;5041842;28;20978;-47
2021/01/09 02:47:30;;;;;;;9.55;6.93;;;;;;;;;;5040830;28;20033;-48
2021/01/09 02:49:56;;;;;;;10.30;6.75;;;;;;;;;;5039811;28;20033;-47
2021/01/09 02:52:22;;;;;;;9.32;6.95;;;;;;;;;;5040405;28;20063;-49
2021/01/09 02:54:48;;;;;;;9.45;6.70;;;;;;;;;;5039817;28;20479;-47
2021/01/09 02:57:14;;;;;;;9.52;6.90;;;;;;;;;;5040180;28;20056;-48
2021/01/09 02:59:40;;;;;;;9.15;6.55;;;;;;;;;;5041746;28;20036;-47
2021/01/09 03:02:05;;;;;;;10.35;7.15;;;;;;;;;;5039339;28;20057;-47
2021/01/09 03:04:31;;;;;;;8.63;6.32;;;;;;;;;;5045368;28;20029;-48
2021/01/09 03:06:57;;;;;;;10.05;6.82;;;;;;;;;;5038834;28;20100;-48
2021/01/09 03:09:23;;;;;;;8.50;6.07;;;;;;;;;;5041127;28;20391;-48
2021/01/09 03:11:49;;;;;;;9.25;7.00;;;;;;;;;;5040660;28;20024;-48
2021/01/09 03:14:15;;;;;;;10.75;6.95;;;;;;;;;;5044028;28;20040;-48
2021/01/09 03:16:41;;;;;;;9.32;6.53;;;;;;;;;;5041868;28;20028;-47
2021/01/09 03:19:07;;;;;;;9.98;6.75;;;;;;;;;;5043694;28;20029;-48
2021/01/09 03:21:33;;;;;;;10.23;6.75;;;;;;;;;;5045428;28;20059;-49
2021/01/09 03:23:59;;;;;;;9.85;6.70;;;;;;;;;;5042967;28;20360;-47
2021/01/09 03:26:25;;;;;;;9.00;6.07;;;;;;;;;;5045064;28;20053;-49
2021/01/09 03:28:51;;;;;;;8.30;6.07;;;;;;;;;;5044174;28;20498;-47
2021/01/09 03:31:17;;;;;;;8.02;5.85;;;;;;;;;;5043886;28;20033;-47
2021/01/09 03:33:43;;;;;;;8.55;5.78;;;;;;;;;;5044072;28;20029;-48
2021/01/09 03:36:09;;;;;;;7.72;5.68;;;;;;;;;;5049368;28;20431;-48
2021/01/09 03:38:35;;;;;;;7.43;5.13;;;;;;;;;;5045437;28;20017;-48
2021/01/09 03:41:01;;;;;;;8.23;5.22;;;;;;;;;;5042391;28;20026;-48
2021/01/09 03:43:27;;;;;;;8.00;5.30;;;;;;;;;;5044678;28;20098;-47
2021/01/09 03:45:53;;;;;;;7.07;4.90;;;;;;;;;;5043262;28;20021;-49
2021/01/09 03:48:19;;;;;;;7.78;5.32;;;;;;;;;;5043868;28;20021;-48
2021/01/09 03:50:45;;;;;;;7.82;5.22;;;;;;;;;;5044751;28;20104;-48
2021/01/09 03:53:11;;;;;;;8.00;5.45;;;;;;;;;;5043138;28;20160;-47
2021/01/09 03:55:37;;;;;;;7.43;5.03;;;;;;;;;;5045282;28;20024;-47
2021/01/09 03:58:03;;;;;;;8.15;5.60;;;;;;;;;;5042313;28;20373;-48
2021/01/09 04:00:29;;;;;;;7.22;5.20;;;;;;;;;;5044995;28;20037;-49
2021/01/09 04:02:55;;;;;;;6.82;4.55;;;;;;;;;;5041755;28;20497;-47
2021/01/09 04:05:21;;;;;;;6.47;4.72;;;;;;;;;;5043689;28;20025;-48
2021/01/09 04:07:47;;;;;;;7.57;4.78;;;;;;;;;;5044184;28;20100;-48
2021/01/09 04:10:13;;;;;;;7.70;5.15;;;;;;;;;;5042840;28;20395;-48
2021/01/09 04:12:39;;;;;;;8.00;5.22;;;;;;;;;;5043168;28;20033;-47
2021/01/09 04:15:05;;;;;;;7.38;5.15;;;;;;;;;;5041881;28;20381;-49
2021/01/09 04:17:31;;;;;;;7.40;5.07;;;;;;;;;;5043163;28;20025;-47
2021/01/09 04:19:57;;;;;;;6.72;4.43;;;;;;;;;;5042247;28;20032;-47
2021/01/09 04:22:23;;;;;;;5.85;4.28;;;;;;;;;;5043564;28;20037;-48
2021/01/09 04:24:49;;;;;;;6.43;4.40;;;;;;;;;;5042076;28;20457;-48
2021/01/09 04:27:15;;;;;;;6.38;4.55;;;;;;;;;;5041756;28;20026;-48
2021/01/09 04:29:41;;;;;;;5.45;3.90;;;;;;;;;;5042767;28;20021;-47
2021/01/09 04:32:07;;;;;;;5.43;3.65;;;;;;;;;;5042200;28;20014;-48
2021/01/09 04:34:33;;;;;;;4.93;3.40;;;;;;;;;;5044239;28;20083;-48
2021/01/09 04:36:59;;;;;;;3.05;2.42;;;;;;;;;;5044125;28;20034;-48
2021/01/09 04:39:25;;;;;;;4.35;3.28;;;;;;;;;;5043798;28;20100;-47
2021/01/09 04:41:51;;;;;;;3.90;3.03;;;;;;;;;;5042782;28;20036;-47
2021/01/09 04:44:17;;;;;;;3.80;2.80;;;;;;;;;;5041862;28;20486;-48
2021/01/09 04:46:44;;;;;;;4.75;3.22;;;;;;;;;;5043746;28;20036;-47
2021/01/09 04:49:10;;;;;;;5.40;3.42;;;;;;;;;;5040022;28;20397;-47
2021/01/09 04:51:37;;;;;;;4.05;3.10;;;;;;;;;;5044160;28;20053;-48
2021/01/09 04:54:03;;;;;;;4.97;3.40;;;;;;;;;;5039870;28;20041;-48
2021/01/09 04:56:29;;;;;;;5.20;3.50;;;;;;;;;;5048479;28;20063;-48
2021/01/09 04:58:55;;;;;;;5.47;3.58;;;;;;;;;;5044969;28;20021;-48
2021/01/09 05:01:21;;;;;;;5.15;3.80;;;;;;;;;;5042986;28;20353;-48
2021/01/09 05:03:48;;;;;;;4.47;3.50;;;;;;;;;;5042832;28;20090;-48
2021/01/09 05:06:23;;;;;;;4.68;3.45;;;;;;;;;;5040762;28;20104;-47
2021/01/09 05:08:49;;;;;;;4.28;3.38;;;;;;;;;;5056232;28;20027;-47
2021/01/09 05:11:18;;;;;;;4.28;3.30;;;;;;;;;;5041845;28;20376;-48
2021/01/09 05:13:44;;;;;;;5.25;3.30;;;;;;;;;;5040875;28;20032;-48
2021/01/09 05:16:11;;;;;;;4.63;3.15;;;;;;;;;;5043987;28;20079;-47
2021/01/09 05:18:38;;;;;;;4.47;3.17;;;;;;;;;;5043601;28;20037;-48
2021/01/09 05:21:05;;;;;;;4.85;3.10;;;;;;;;;;5039492;28;20026;-47
2021/01/09 05:23:49;;;;;;;4.80;3.08;;;;;;;;;;5042171;28;20095;-48
2021/01/09 05:26:15;;;;;;;4.28;2.83;;;;;;;;;;5039270;28;20057;-48
2021/01/09 05:28:41;;;;;;;3.20;2.40;;;;;;;;;;5058623;28;20052;-48
2021/01/09 05:31:07;;;;;;;2.83;2.35;;;;;;;;;;5040970;28;20092;-48
2021/01/09 05:33:33;;;;;;;4.00;2.72;;;;;;;;;;5041747;28;20448;-48
2021/01/09 05:36:00;;;;;;;3.13;2.60;;;;;;;;;;5023534;28;20032;-48
2021/01/09 05:38:39;;;;;;;3.38;2.42;;;;;;;;;;5042563;28;20048;-48
2021/01/09 05:41:05;;;;;;;4.07;2.90;;;;;;;;;;5040540;28;20034;-48
2021/01/09 05:43:31;;;;;;;4.00;2.70;;;;;;;;;;5041702;28;20100;-48
2021/01/09 05:45:58;;;;;;;4.68;3.05;;;;;;;;;;5040823;28;20121;-47
2021/01/09 05:48:31;;;;;;;4.15;3.15;;;;;;;;;;5040989;28;20078;-48
2021/01/09 05:50:57;;;;;;;5.05;3.53;;;;;;;;;;5040719;28;20057;-48
2021/01/09 05:53:36;;;;;;;3.97;2.90;;;;;;;;;;5040595;28;20076;-48
2021/01/09 05:56:02;;;;;;;3.42;2.55;;;;;;;;;;5039949;28;20025;-47
2021/01/09 05:58:28;;;;;;;4.03;2.67;;;;;;;;;;5042428;28;20021;-48
2021/01/09 06:00:54;;;;;;;3.83;2.88;;;;;;;;;;5042028;28;20036;-47
2021/01/09 06:03:20;;;;;;;5.75;3.70;;;;;;;;;;5041085;28;20032;-48
2021/01/09 06:05:47;;;;;;;5.28;3.40;;;;;;;;;;5041682;28;20032;-47
2021/01/09 06:08:14;;;;;;;3.38;2.63;;;;;;;;;;5040602;28;20027;-47
2021/01/09 06:10:40;;;;;;;4.47;3.08;;;;;;;;;;5042434;28;20186;-47
2021/01/09 06:13:09;;;;;;;3.88;3.30;;;;;;;;;;5039020;28;20092;-47
2021/01/09 06:15:35;;;;;;;5.32;3.85;;;;;;;;;;5041078;28;20021;-47
2021/01/09 06:18:01;;;;;;;3.63;2.90;;;;;;;;;;5038616;28;20033;-48
2021/01/09 06:20:27;;;;;;;4.55;3.35;;;;;;;;;;5041038;28;20056;-48
2021/01/09 06:22:53;;;;;;;4.90;3.25;;;;;;;;;;5040650;28;20029;-47
2021/01/09 06:25:19;;;;;;;5.70;3.58;;;;;;;;;;5040077;28;20021;-48
2021/01/09 06:27:46;;;;;;;4.13;3.08;;;;;;;;;;5040405;28;20048;-47
2021/01/09 06:30:12;;;;;;;4.47;3.20;;;;;;;;;;5039060;28;20533;-47
2021/01/09 06:32:38;;;;;;;4.13;2.80;;;;;;;;;;5039258;28;20467;-47
2021/01/09 06:35:05;;;;;;;4.53;3.10;;;;;;;;;;5038189;28;20036;-48
2021/01/09 06:37:31;;;;;;;4.93;3.38;;;;;;;;;;5041906;28;20033;-50
2021/01/09 06:39:56;;;;;;;5.30;3.65;;;;;;;;;;5038611;28;20059;-48
2021/01/09 06:42:24;;;;;;;5.15;3.50;;;;;;;;;;5040928;28;20522;-47
2021/01/09 06:44:50;;;;;;;4.90;3.50;;;;;;;;;;5023687;28;20124;-47
2021/01/09 06:47:26;;;;;;;6.18;4.10;;;;;;;;;;5039474;28;20143;-47
2021/01/09 06:49:52;;;;;;;6.28;4.60;;;;;;;;;;5040108;28;20021;-48
2021/01/09 06:52:18;;;;;;;6.93;4.93;;;;;;;;;;5042954;28;20022;-48
2021/01/09 06:54:44;;;;;;;5.80;4.15;;;;;;;;;;5041621;28;20032;-47
2021/01/09 06:57:31;;;;;;;7.53;4.88;;;;;;;;;;5037792;28;20025;-48
2021/01/09 06:59:56;;;;;;;7.88;5.32;;;;;;;;;;5040351;28;20534;-48
2021/01/09 07:02:23;;;;;;;8.05;5.50;;;;;;;;;;5041161;28;20136;-47
2021/01/09 07:04:52;;;;;;;8.50;5.60;;;;;;;;;;5041328;28;20040;-48
2021/01/09 07:07:27;;;;;;;7.38;5.20;;;;;;;;;;5041534;28;20083;-49
2021/01/09 07:09:57;;;;;;;7.75;5.38;;;;;;;;;;5037978;28;20030;-48
2021/01/09 07:12:24;;;;;;;7.55;5.40;;;;;;;;;;5039976;28;20025;-48
2021/01/09 07:14:50;;;;;;;8.90;6.20;;;;;;;;;;5039247;28;20105;-49
2021/01/09 07:17:16;;;;;;;8.75;6.32;;;;;;;;;;5035423;28;20699;-50
2021/01/09 07:19:43;;;;;;;9.07;6.45;;;;;;;;;;5051042;28;20048;-50
2021/01/09 07:22:09;;;;;;;8.63;6.43;;;;;;;;;;5035063;28;20045;-49
2021/01/09 07:24:35;;;;;;;9.60;6.50;;;;;;;;;;5051835;28;20040;-49
2021/01/09 07:27:01;;;;;;;9.13;6.35;;;;;;;;;;5053498;28;20021;-48
2021/01/09 07:29:27;;;;;;;9.80;6.88;;;;;;;;;;5037675;28;20017;-48
2021/01/09 07:31:53;;;;;;;9.40;6.47;;;;;;;;;;5034715;28;20021;-49
2021/01/09 07:34:20;;;;;;;11.23;7.28;;;;;;;;;;5035068;28;20025;-48
2021/01/09 07:36:47;;;;;;;9.98;7.20;;;;;;;;;;5050969;28;20104;-47
2021/01/09 07:39:13;;;;;;;9.60;6.82;;;;;;;;;;5037625;28;20076;-49
2021/01/09 07:41:39;;;;;;;9.35;6.50;;;;;;;;;;5049840;28;20028;-48
2021/01/09 07:44:12;;;;;;;9.70;7.20;;;;;;;;;;5023767;28;20029;-48
2021/01/09 07:46:38;;;;;;;10.18;7.03;;;;;;;;;;5068624;28;20060;-48
2021/01/09 07:49:04;;;;;;;11.20;7.78;;;;;;;;;;5033985;28;20041;-48
2021/01/09 07:51:45;;;;;;;10.43;7.45;;;;;;;;;;5050194;28;20064;-49
2021/01/09 07:54:11;;;;;;;10.53;7.90;;;;;;;;;;5034908;28;20034;-48
2021/01/09 07:56:37;;;;;;;11.38;7.80;;;;;;;;;;5033448;28;20030;-48
2021/01/09 07:59:04;;;;;;;10.25;7.22;;;;;;;;;;5042114;28;20029;-48
2021/01/09 08:01:30;;;;;;;9.90;7.05;;;;;;;;;;5037533;28;20036;-47
2021/01/09 08:03:56;;;;;;;10.82;7.28;;;;;;;;;;5054454;28;20048;-49
2021/01/09 08:06:22;;;;;;;10.52;7.40;;;;;;;;;;5037380;28;21129;-48
2021/01/09 08:08:51;;;;;;;9.60;7.07;;;;;;;;;;5039077;28;20071;-48
2021/01/09 08:11:17;;;;;;;10.30;7.32;;;;;;;;;;5038469;28;20021;-47
2021/01/09 08:13:43;;;;;;;11.20;7.50;;;;;;;;;;5039009;28;20052;-48
2021/01/09 08:16:09;;;;;;;10.38;7.25;;;;;;;;;;5037826;28;20036;-48
2021/01/09 08:18:35;;;;;;;10.30;7.07;;;;;;;;;;5038757;28;20033;-48
2021/01/09 08:21:01;;;;;;;10.57;7.28;;;;;;;;;;5041139;28;20036;-47
2021/01/09 08:23:28;;;;;;;10.63;7.75;;;;;;;;;;5038410;28;20464;-48
2021/01/09 08:25:54;;;;;;;10.90;7.32;;;;;;;;;;5038867;28;20436;-47
2021/01/09 08:28:20;;;;;;;11.13;7.35;;;;;;;;;;5037921;28;20099;-48
2021/01/09 08:30:46;;;;;;;10.32;6.90;;;;;;;;;;5056371;28;20035;-48
2021/01/09 08:33:16;;;;;;;10.45;7.03;;;;;;;;;;5037603;28;20091;-48
2021/01/09 08:35:49;;;;;;;8.85;6.25;;;;;;;;;;5053459;28;20021;-47
2021/01/09 08:38:15;;;;;;;10.95;7.25;;;;;;;;;;5036886;28;20025;-47
2021/01/09 08:40:42;;;;;;;10.32;7.13;;;;;;;;;;5037948;28;20410;-47
2021/01/09 08:43:12;;;;;;;9.50;6.57;;;;;;;;;;5043210;28;20080;-48
2021/01/09 08:45:41;;;;;;;10.30;6.97;;;;;;;;;;5039102;28;20036;-48
2021/01/09 08:48:11;;;;;;;10.40;6.93;;;;;;;;;;5037741;28;20030;-49
2021/01/09 08:50:42;;;;;;;8.80;6.25;;;;;;;;;;5037818;28;20047;-48
2021/01/09 08:53:08;;;;;;;9.40;6.30;;;;;;;;;;5036426;28;20022;-47
2021/01/09 08:55:34;;;;;;;10.45;7.00;;;;;;;;;;5052861;28;20080;-48
2021/01/09 08:58:00;;;;;;;9.75;6.53;;;;;;;;;;5038123;28;20101;-50
2021/01/09 09:00:26;;;;;;;10.60;6.80;;;;;;;;;;5037612;28;20022;-47
2021/01/09 09:02:52;;;;;;;11.23;7.55;;;;;;;;;;5038287;28;20026;-48
2021/01/09 09:05:19;;;;;;;10.32;6.68;;;;;;;;;;5037473;28;20036;-48
2021/01/09 09:07:45;;;;;;;11.63;8.20;;;;;;;;;;5038193;28;20057;-48
2021/01/09 09:10:11;;;;;;;11.10;7.47;;;;;;;;;;5035638;28;20057;-48
2021/01/09 09:12:39;;;;;;;10.45;7.05;;;;;;;;;;5035890;28;20037;-48
2021/01/09 09:15:10;;;;;;;10.23;7.18;;;;;;;;;;5036439;28;20021;-48
2021/01/09 09:17:35;;;;;;;12.40;7.80;;;;;;;;;;5052127;28;20021;-48
2021/01/09 09:20:01;;;;;;;10.80;7.18;;;;;;;;;;5053234;28;20039;-49
2021/01/09 09:22:30;;;;;;;10.80;6.80;;;;;;;;;;5037105;28;20041;-48
2021/01/09 09:24:57;;;;;;;9.77;6.60;;;;;;;;;;5037725;28;20028;-48
2021/01/09 09:27:27;;;;;;;10.55;7.20;;;;;;;;;;5037000;28;20026;-48
2021/01/09 09:30:05;;;;;;;9.93;6.55;;;;;;;;;;5052904;28;20030;-48
2021/01/09 09:32:31;;;;;;;10.45;7.15;;;;;;;;;;5036832;28;20024;-49
2021/01/09 09:34:57;;;;;;;10.93;7.20;;;;;;;;;;5037674;28;20037;-47
2021/01/09 09:37:34;;;;;;;10.25;6.75;;;;;;;;;;5036862;28;20063;-49
2021/01/09 09:40:00;;;;;;;10.00;6.43;;;;;;;;;;5052908;28;20088;-50
2021/01/09 09:42:26;;;;;;;10.98;6.68;;;;;;;;;;5037150;28;20104;-48
2021/01/09 09:44:52;;;;;;;10.38;6.70;;;;;;;;;;5037350;28;20484;-50
2021/01/09 09:47:25;;;;;;;10.63;6.90;;;;;;;;;;5036903;28;20029;-49
2021/01/09 09:49:51;;;;;;;10.18;6.60;;;;;;;;;;5037165;28;20017;-48
2021/01/09 09:52:17;;;;;;;10.15;6.60;;;;;;;;;;5035896;28;20136;-47
2021/01/09 09:54:43;;;;;;;10.10;6.25;;;;;;;;;;5035491;28;20079;-48
2021/01/09 09:57:18;;;;;;;9.32;6.05;;;;;;;;;;5035923;28;20026;-47
2021/01/09 09:59:44;;;;;;;10.25;6.97;;;;;;;;;;5037257;28;20395;-47
2021/01/09 10:02:10;;;;;;;8.00;5.35;;;;;;;;;;5031723;28;20034;-47
2021/01/09 10:04:43;;;;;;;8.30;5.32;;;;;;;;;;5029828;28;20507;-47
2021/01/09 10:07:20;;;;;;;8.38;5.05;;;;;;;;;;5045439;28;20046;-48
2021/01/09 10:09:46;;;;;;;9.05;5.63;;;;;;;;;;5035066;28;20432;-48
2021/01/09 10:12:11;;;;;;;9.75;6.32;;;;;;;;;;5035484;28;20132;-48
2021/01/09 10:14:37;;;;;;;7.97;5.25;;;;;;;;;;5035110;28;20033;-47
2021/01/09 10:17:03;;;;;;;8.75;5.43;;;;;;;;;;5036086;28;20051;-47
2021/01/09 10:19:29;;;;;;;7.88;4.97;;;;;;;;;;5040509;28;20025;-47
2021/01/09 10:21:55;;;;;;;7.85;5.18;;;;;;;;;;5053340;28;20033;-49
2021/01/09 10:24:21;;;;;;;8.43;5.13;;;;;;;;;;5036035;28;20069;-47
2021/01/09 10:26:47;;;;;;;6.85;4.47;;;;;;;;;;5067797;28;20026;-47
2021/01/09 10:29:14;;;;;;;7.25;4.72;;;;;;;;;;5035475;28;20026;-47
2021/01/09 10:31:40;;;;;;;6.97;4.65;;;;;;;;;;5038525;28;20094;-47
2021/01/09 10:34:07;;;;;;;7.30;5.07;;;;;;;;;;5040971;28;20476;-47
2021/01/09 10:36:34;;;;;;;7.20;5.03;;;;;;;;;;5051117;28;20495;-47
2021/01/09 10:39:00;;;;;;;8.02;5.32;;;;;;;;;;5038373;28;20071;-47
2021/01/09 10:41:26;;;;;;;7.63;4.88;;;;;;;;;;5035901;28;20088;-47
2021/01/09 10:43:52;;;;;;;9.02;6.15;;;;;;;;;;5036820;28;20059;-48
2021/01/09 10:46:19;;;;;;;8.52;5.78;;;;;;;;;;5039893;28;20070;-47
2021/01/09 10:48:45;;;;;;;9.55;6.22;;;;;;;;;;5040841;28;20048;-48
2021/01/09 10:51:14;;;;;;;9.05;5.78;;;;;;;;;;5039891;28;20499;-47
2021/01/09 10:53:40;;;;;;;9.60;6.38;;;;;;;;;;5041734;28;20057;-47
2021/01/09 10:56:06;;;;;;;8.60;5.90;;;;;;;;;;5040118;28;20083;-47
2021/01/09 10:58:32;;;;;;;9.48;6.20;;;;;;;;;;5037766;28;20033;-47
2021/01/09 11:00:58;;;;;;;11.23;8.38;;;;;;;;;;5042736;28;20556;-48
2021/01/09 11:03:24;;;;;;;11.52;8.07;;;;;;;;;;5040782;28;20041;-47
2021/01/09 11:05:50;;;;;;;11.70;7.78;;;;;;;;;;5041369;28;20439;-47
2021/01/09 11:08:16;;;;;;;11.88;7.93;;;;;;;;;;5043161;28;20035;-47
2021/01/09 11:10:42;;;;;;;11.73;8.30;;;;;;;;;;5040055;28;20017;-47
2021/01/09 11:13:08;;;;;;;11.57;7.80;;;;;;;;;;5042017;28;20018;-47
2021/01/09 11:15:35;;;;;;;12.60;8.65;;;;;;;;;;5041791;28;20056;-47
2021/01/09 11:18:01;;;;;;;12.32;8.93;;;;;;;;;;5041644;28;20043;-48
2021/01/09 11:20:27;;;;;;;12.95;9.07;;;;;;;;;;5036900;28;20446;-48
2021/01/09 11:22:53;;;;;;;13.90;9.48;;;;;;;;;;5037198;28;20068;-47
2021/01/09 11:25:19;;;;;;;13.45;8.80;;;;;;;;;;5041446;28;20104;-47
2021/01/09 11:27:45;;;;;;;10.70;7.03;;;;;;;;;;5041570;28;20029;-47
2021/01/09 11:30:11;;;;;;;10.57;7.10;;;;;;;;;;5036017;28;20029;-46
2021/01/09 11:32:37;;;;;;;10.77;7.03;;;;;;;;;;5039522;28;20068;-46
2021/01/09 11:35:03;;;;;;;11.27;7.60;;;;;;;;;;5041422;28;20037;-46
2021/01/09 11:37:29;;;;;;;13.70;9.32;;;;;;;;;;5041718;28;20029;-46
2021/01/09 11:39:56;;;;;;;9.80;6.78;;;;;;;;;;5039900;28;20067;-46
2021/01/09 11:42:22;;;;;;;9.38;6.32;;;;;;;;;;5040391;28;20018;-46
2021/01/09 11:44:48;;;;;;;8.95;6.15;;;;;;;;;;5041595;28;20026;-46
2021/01/09 11:47:14;;;;;;;9.48;6.22;;;;;;;;;;5040199;28;20071;-46
2021/01/09 11:49:40;;;;;;;10.27;6.60;;;;;;;;;;5040327;28;20033;-47
2021/01/09 11:52:06;;;;;;;9.25;6.38;;;;;;;;;;5039819;28;20037;-47
2021/01/09 11:54:32;;;;;;;9.98;7.07;;;;;;;;;;5040458;28;20029;-47
2021/01/09 11:57:00;;;;;;;9.32;6.25;;;;;;;;;;5037963;28;20025;-46
2021/01/09 11:59:26;;;;;;;9.38;6.45;;;;;;;;;;5040524;28;20018;-46
2021/01/09 12:01:52;;;;;;;10.50;7.78;;;;;;;;;;5040778;28;20087;-46
2021/01/09 12:04:18;;;;;;;10.57;8.02;;;;;;;;;;5040409;28;20029;-47
2021/01/09 12:06:44;;;;;;;11.75;8.70;;;;;;;;;;5040071;28;20021;-46
2021/01/09 12:09:10;;;;;;;10.52;7.50;;;;;;;;;;5039445;28;20495;-47
2021/01/09 12:11:36;;;;;;;10.52;7.60;;;;;;;;;;5040121;28;20034;-47
2021/01/09 12:14:02;;;;;;;10.25;6.93;;;;;;;;;;5042224;28;20025;-46
2021/01/09 12:16:31;;;;;;;9.82;6.20;;;;;;;;;;5042701;28;20022;-47
2021/01/09 12:18:57;;;;;;;9.05;5.93;;;;;;;;;;5037758;28;20029;-47
2021/01/09 12:21:23;;;;;;;9.02;5.72;;;;;;;;;;5039941;28;20060;-46
2021/01/09 12:23:49;;;;;;;8.30;5.72;;;;;;;;;;5037288;28;20030;-47
2021/01/09 12:26:21;;;;;;;9.40;6.32;;;;;;;;;;5039962;28;20026;-47
2021/01/09 12:28:47;;;;;;;;;;;;;;;;;;5041104;28;20017;-46
2021/01/09 12:31:13;;;;;;;14.45;10.43;;;;;;;;;;5039356;28;19947;-47
2021/01/09 12:33:40;;;;;;;9.35;5.88;;;;;;;;;;5039552;28;20026;-46
2021/01/09 12:36:07;;;;;;;9.93;7.25;;;;;;;;;;5038673;28;20545;-47
2021/01/09 12:38:33;;;;;;;8.80;5.30;;;;;;;;;;5040137;28;20391;-47
2021/01/09 12:40:59;;;;;;;10.18;6.55;;;;;;;;;;5039676;28;20547;-46
2021/01/09 12:43:25;;;;;;;12.55;9.85;;;;;;;;;;5039498;28;20116;-46
2021/01/09 12:45:53;;;;;;;11.57;8.95;;;;;;;;;;5038534;28;20061;-47
2021/01/09 12:48:19;;;;;;;10.82;7.65;;;;;;;;;;5039595;28;20022;-47
2021/01/09 12:50:45;;;;;;;10.57;7.10;;;;;;;;;;5039582;28;20021;-47
2021/01/09 12:53:11;;;;;;;9.60;6.30;;;;;;;;;;5039964;28;20068;-47
2021/01/09 12:55:37;;;;;;;10.52;7.43;;;;;;;;;;5038847;28;20065;-48
2021/01/09 12:58:03;;;;;;;10.05;6.45;;;;;;;;;;5039175;28;20112;-47
2021/01/09 13:00:29;;;;;;;9.80;6.18;;;;;;;;;;5041492;28;20029;-46
2021/01/09 13:02:55;;;;;;;10.20;6.65;;;;;;;;;;5039274;28;20022;-48
2021/01/09 13:05:21;;;;;;;11.32;7.70;;;;;;;;;;5039299;28;20522;-47
2021/01/09 13:07:47;;;;;;;9.98;7.05;;;;;;;;;;5039016;28;20022;-47
2021/01/09 13:10:13;;;;;;;11.60;7.40;;;;;;;;;;5038454;28;20021;-47
2021/01/09 13:12:39;;;;;;;10.65;6.80;;;;;;;;;;5038773;28;20028;-47
2021/01/09 13:15:06;;;;;;;10.35;6.60;;;;;;;;;;5042980;28;20033;-47
2021/01/09 13:17:31;;;;;;;10.52;6.97;;;;;;;;;;5039074;28;20021;-49
2021/01/09 13:19:58;;;;;;;10.55;6.95;;;;;;;;;;5038922;28;20064;-47
2021/01/09 13:22:24;;;;;;;10.02;6.50;;;;;;;;;;5038885;28;20518;-48
2021/01/09 13:24:50;;;;;;;10.32;6.95;;;;;;;;;;5053885;28;20034;-46
2021/01/09 13:27:16;;;;;;;11.52;7.65;;;;;;;;;;5042775;28;20576;-46
2021/01/09 13:29:42;;;;;;;10.88;7.30;;;;;;;;;;5037313;28;20075;-47
2021/01/09 13:32:09;;;;;;;10.10;6.93;;;;;;;;;;5038066;28;20135;-47
2021/01/09 13:34:35;;;;;;;12.90;9.60;;;;;;;;;;5038485;28;20056;-46
2021/01/09 13:37:04;;;;;;;10.32;6.97;;;;;;;;;;5038403;28;20033;-47
2021/01/09 13:39:31;;;;;;;10.10;6.63;;;;;;;;;;5038561;28;20029;-46
2021/01/09 13:41:56;;;;;;;12.60;7.50;;;;;;;;;;5038277;28;20017;-48
2021/01/09 13:44:22;;;;;;;11.30;7.47;;;;;;;;;;5040925;28;20078;-46
2021/01/09 13:46:48;;;;;;;12.00;7.45;;;;;;;;;;5054210;28;20025;-48
2021/01/09 13:49:15;;;;;;;11.70;6.88;;;;;;;;;;5038195;28;20100;-47
2021/01/09 13:51:41;;;;;;;10.93;6.80;;;;;;;;;;5038001;28;20075;-47
2021/01/09 13:54:10;;;;;;;11.98;7.93;;;;;;;;;;5037509;28;20507;-47
2021/01/09 13:56:36;;;;;;;13.30;8.05;;;;;;;;;;5039007;28;20426;-47
2021/01/09 13:59:03;;;;;;;11.95;7.70;;;;;;;;;;5039182;28;20108;-48
2021/01/09 14:01:29;;;;;;;13.32;7.72;;;;;;;;;;5037838;28;20496;-47
2021/01/09 14:03:55;;;;;;;17.05;10.50;;;;;;;;;;5037982;28;20032;-46
2021/01/09 14:06:21;;;;;;;40.08;21.17;;;;;;;;;;5037920;28;20029;-46
2021/01/09 14:08:47;;;;;;;25.70;14.35;;;;;;;;;;5040410;28;20053;-47
2021/01/09 14:11:13;;;;;;;18.77;13.02;;;;;;;;;;5037438;28;20104;-48
2021/01/09 14:13:39;;;;;;;16.35;11.05;;;;;;;;;;5020794;28;20021;-48
2021/01/09 14:16:05;;;;;;;18.02;10.70;;;;;;;;;;5037394;28;20032;-47
2021/01/09 14:18:31;;;;;;;16.88;9.88;;;;;;;;;;5037746;28;20028;-46
2021/01/09 14:20:57;;;;;;;16.83;9.55;;;;;;;;;;5037653;28;20063;-47
2021/01/09 14:23:24;;;;;;;15.82;9.40;;;;;;;;;;5037764;28;20116;-47
2021/01/09 14:25:53;;;;;;;17.05;9.88;;;;;;;;;;5040277;28;20095;-47
2021/01/09 14:28:20;;;;;;;16.30;9.38;;;;;;;;;;5037866;28;20025;-47
2021/01/09 14:30:46;;;;;;;14.93;8.57;;;;;;;;;;5037886;28;20025;-51
2021/01/09 14:33:13;;;;;;;17.10;9.80;;;;;;;;;;5037347;28;20040;-47
2021/01/09 14:35:39;;;;;;;15.13;8.77;;;;;;;;;;5037230;28;20029;-49